createdAt,value
2019-04-21T06:53:52.076Z,101878.72
2019-04-21T06:59:20.633Z,101868.50
2019-04-21T07:05:00.070Z,101871.58
2019-04-21T07:10:25.856Z,101871.81
2019-04-21T07:16:03.884Z,101869.80
2019-04-21T07:21:33.682Z,101861.30
2019-04-21T07:27:02.045Z,101859.00
2019-04-21T07:32:20.478Z,101855.77
2019-04-21T07:37:40.393Z,101851.05
2019-04-21T07:42:50.990Z,101848.59
2019-04-21T07:48:18.592Z,101842.68
2019-04-21T07:53:40.138Z,101837.11
2019-04-21T07:59:01.488Z,101834.66
2019-04-21T08:04:37.513Z,101821.94
2019-04-21T08:09:31.690Z,101823.20
2019-04-21T08:14:49.256Z,101818.80
2019-04-21T08:19:58.764Z,101811.59
2019-04-21T08:25:19.175Z,101806.70
2019-04-21T08:41:01.340Z,101790.76
2019-04-21T08:56:39.719Z,101788.89
2019-04-21T09:01:55.092Z,101776.59
2019-04-21T09:07:25.269Z,101768.13
2019-04-21T09:12:21.002Z,101765.95
2019-04-21T09:17:28.310Z,101760.52
2019-04-21T09:22:47.555Z,101750.24
2019-04-21T09:28:00.363Z,101750.52
2019-04-21T09:32:42.868Z,101734.47
2019-04-21T09:38:00.950Z,101735.02
2019-04-21T09:43:11.861Z,101740.38
2019-04-21T09:48:24.366Z,101729.97
2019-04-21T09:53:38.095Z,101729.81
2019-04-21T09:58:51.390Z,101718.15
2019-04-21T10:04:03.692Z,101708.80
2019-04-21T10:09:14.730Z,101703.38
2019-04-21T10:14:09.556Z,101690.05
2019-04-21T10:19:02.447Z,101688.33
2019-04-21T10:23:55.765Z,101684.14
2019-04-21T10:28:51.394Z,101672.59
2019-04-21T10:33:46.153Z,101661.84
2019-04-21T10:38:55.677Z,101658.11
2019-04-21T10:43:49.723Z,101659.12
2019-04-21T10:48:43.890Z,101638.66
2019-04-21T10:53:38.615Z,101636.92
2019-04-21T10:58:32.022Z,101626.34
2019-04-21T11:03:28.911Z,101622.67
2019-04-21T11:08:43.815Z,101618.38
2019-04-21T11:13:36.724Z,101611.06
2019-04-21T11:18:32.561Z,101604.94
2019-04-21T11:23:27.473Z,101606.16
2019-04-21T11:28:22.769Z,101594.00
2019-04-21T11:33:17.754Z,101593.73
2019-04-21T11:38:30.366Z,101584.03
2019-04-21T11:43:23.956Z,101581.73
2019-04-21T11:48:18.519Z,101575.89
2019-04-21T11:53:14.725Z,101568.91
2019-04-21T11:58:09.800Z,101562.09
2019-04-21T12:03:05.712Z,101557.70
2019-04-21T12:08:03.777Z,101550.70
2019-04-21T12:12:59.125Z,101544.44
2019-04-21T12:17:56.918Z,101537.41
2019-04-21T12:22:50.253Z,101526.67
2019-04-21T12:27:47.820Z,101514.66
2019-04-21T12:32:42.291Z,101515.70
2019-04-21T12:37:37.590Z,101507.60
2019-04-21T12:42:30.265Z,101502.47
2019-04-21T12:47:25.847Z,101501.93
2019-04-21T12:52:19.741Z,101481.72
2019-04-21T12:57:14.173Z,101485.47
2019-04-21T13:02:05.651Z,101477.86
2019-04-21T13:07:01.391Z,101465.34
2019-04-21T13:11:56.959Z,101462.23
2019-04-21T13:16:52.140Z,101456.19
2019-04-21T13:21:45.721Z,101444.76
2019-04-21T13:26:59.513Z,101429.22
2019-04-21T13:31:52.466Z,101419.99
2019-04-21T13:36:49.694Z,101427.09
2019-04-21T13:42:17.204Z,101409.58
2019-04-21T13:47:06.658Z,101397.84
2019-04-21T13:51:58.057Z,101393.42
2019-04-21T13:56:58.494Z,101384.76
2019-04-21T14:01:54.407Z,101374.42
2019-04-21T14:06:46.344Z,101368.29
2019-04-21T14:11:39.290Z,101362.16
2019-04-21T14:16:35.969Z,101353.55
2019-04-21T14:21:31.368Z,101342.72
2019-04-21T14:26:26.632Z,101335.07
2019-04-21T14:31:18.171Z,101326.23
2019-04-21T14:36:14.730Z,101317.91
2019-04-21T14:41:08.778Z,101317.98
2019-04-21T14:46:03.398Z,101304.16
2019-04-21T14:50:56.271Z,101306.98
2019-04-21T14:55:51.291Z,101304.18
2019-04-21T15:00:45.668Z,101293.52
2019-04-21T15:05:39.662Z,101296.00
2019-04-21T15:10:38.855Z,101291.89
2019-04-21T15:15:31.822Z,101283.48
2019-04-21T15:20:29.166Z,101279.78
2019-04-21T15:25:23.787Z,101277.09
2019-04-21T15:30:18.556Z,101268.53
2019-04-21T15:35:13.576Z,101256.47
2019-04-21T15:40:35.129Z,101254.39
2019-04-21T15:45:20.851Z,101243.91
2019-04-21T15:50:25.085Z,101234.27
2019-04-21T15:55:18.827Z,101234.34
2019-04-21T16:00:12.676Z,101234.10
2019-04-21T16:05:09.079Z,101226.63
2019-04-21T16:10:09.958Z,101224.97
2019-04-21T16:15:05.457Z,101214.20
2019-04-21T16:19:57.824Z,101215.67
2019-04-21T16:24:50.965Z,101210.36
2019-04-21T16:29:46.240Z,101197.20
2019-04-21T16:35:03.637Z,101193.34
2019-04-21T16:39:56.115Z,101190.42
2019-04-21T16:44:49.630Z,101179.20
2019-04-21T16:49:41.746Z,101174.90
2019-04-21T16:54:36.083Z,101168.18
2019-04-21T16:59:31.030Z,101172.00
2019-04-21T17:04:26.884Z,101167.09
2019-04-21T17:09:21.269Z,101169.08
2019-04-21T17:14:49.309Z,101160.47
2019-04-21T17:19:48.972Z,101152.36
2019-04-21T17:24:44.243Z,101152.55
2019-04-21T17:29:38.615Z,101154.19
2019-04-21T17:34:40.993Z,101147.73
2019-04-21T17:39:32.730Z,101142.65
2019-04-21T17:44:30.212Z,101143.47
2019-04-21T17:49:25.185Z,101138.34
2019-04-21T17:54:43.456Z,101134.77
2019-04-21T18:00:13.590Z,101138.77
2019-04-21T18:05:20.799Z,101143.33
2019-04-21T18:10:34.686Z,101152.19
2019-04-21T18:15:46.814Z,101148.67
2019-04-21T18:20:33.374Z,101153.73
2019-04-21T18:25:54.701Z,101160.80
2019-04-21T18:30:49.160Z,101162.09
2019-04-21T18:36:00.571Z,101157.72
2019-04-21T18:41:01.859Z,101162.33
2019-04-21T18:46:32.899Z,101157.62
2019-04-21T18:51:40.157Z,101156.67
2019-04-21T18:56:33.617Z,101154.75
2019-04-21T19:01:50.366Z,101153.11
2019-04-21T19:07:12.591Z,101154.47
2019-04-21T19:12:50.402Z,101161.66
2019-04-21T19:23:09.879Z,101166.92
2019-04-21T19:28:31.755Z,101165.27
2019-04-21T19:33:40.969Z,101158.53
2019-04-21T19:38:57.937Z,101157.02
2019-04-21T19:44:21.448Z,101166.23
2019-04-21T19:49:49.071Z,101166.41
2019-04-21T19:54:47.234Z,101159.41
2019-04-21T20:00:07.729Z,101150.92
2019-04-21T20:05:31.449Z,101148.38
2019-04-21T20:11:03.710Z,101140.08
2019-04-21T20:16:30.376Z,101133.55
2019-04-21T20:21:16.278Z,101130.57
2019-04-21T20:26:37.458Z,101125.41
2019-04-21T20:32:19.910Z,101121.76
2019-04-21T20:37:37.137Z,101113.19
2019-04-21T20:43:11.203Z,101110.74
2019-04-21T20:48:22.004Z,101110.39
2019-04-21T20:53:47.460Z,101107.39
2019-04-21T20:59:14.601Z,101102.66
2019-04-21T21:04:40.111Z,101102.86
2019-04-21T21:10:20.294Z,101102.43
2019-04-21T21:16:03.590Z,101101.02
2019-04-21T21:21:14.903Z,101101.03
2019-04-21T21:26:53.019Z,101097.50
2019-04-21T21:32:25.663Z,101093.17
2019-04-21T21:37:53.501Z,101091.08
2019-04-21T21:42:55.213Z,101088.71
2019-04-21T21:48:40.359Z,101091.36
2019-04-21T21:53:46.947Z,101084.85
2019-04-21T21:59:26.349Z,101082.87
2019-04-21T22:05:07.162Z,101079.34
2019-04-21T22:10:13.437Z,101076.42
2019-04-21T22:15:41.539Z,101074.55
2019-04-21T22:21:41.080Z,101077.00
2019-04-21T22:26:44.931Z,101073.10
2019-04-21T22:32:28.591Z,101078.13
2019-04-21T22:38:18.919Z,101077.35
2019-04-21T22:43:52.115Z,101079.09
2019-04-21T22:49:24.069Z,101070.70
2019-04-21T22:54:56.567Z,101075.45
